Time;durP1;ratioP1;P1;durP2;ratioP2;P2;SDS_P1;SDS_P2;PMS_P1;PMS_P2;Temp;Humidity;BMP_temperature;BMP_pressure;BME280_temperature;BME280_humidity;BME280_pressure;Samples;Min_cycle;Max_cycle;Signal;HPM_P1;HPM_P2
2021/10/18 00:00:51;;;;;;;13.52;6.15;;;;;;;12.41;57.07;94369.28;4982100;28;20586;-72
2021/10/18 00:03:17;;;;;;;12.70;6.03;;;;;;;12.34;57.27;94374.25;4984828;28;20067;-71
2021/10/18 00:05:42;;;;;;;9.60;5.78;;;;;;;12.49;57.58;94394.38;4972563;28;20090;-72
2021/10/18 00:08:08;;;;;;;9.50;5.80;;;;;;;12.48;57.53;94392.81;4988182;28;20038;-72
2021/10/18 00:10:33;;;;;;;11.32;6.57;;;;;;;12.36;57.23;94368.63;4981974;28;20096;-72
2021/10/18 00:12:59;;;;;;;11.77;6.18;;;;;;;12.40;57.48;94381.03;4985589;28;20041;-72
2021/10/18 00:15:24;;;;;;;10.20;5.28;;;;;;;12.49;56.98;94383.72;4978879;28;20049;-72
2021/10/18 00:17:50;;;;;;;11.25;6.10;;;;;;;12.16;57.10;94340.66;4985402;28;20049;-72
2021/10/18 00:20:16;;;;;;;9.95;6.07;;;;;;;12.49;57.44;94386.38;4985057;28;20049;-72
2021/10/18 00:22:42;;;;;;;16.65;8.30;;;;;;;12.49;57.22;94386.38;4985555;28;20642;-73
2021/10/18 00:25:09;;;;;;;10.48;6.72;;;;;;;12.50;57.13;94390.63;4984057;28;20030;-72
2021/10/18 00:27:34;;;;;;;8.00;5.07;;;;;;;12.14;57.63;94328.72;4987134;28;20037;-72
2021/10/18 00:30:00;;;;;;;9.27;5.30;;;;;;;12.48;57.61;94390.94;4984381;28;20042;-73
2021/10/18 00:32:25;;;;;;;11.68;6.10;;;;;;;12.35;57.45;94372.38;4982416;28;20359;-73
2021/10/18 00:34:51;;;;;;;9.52;5.78;;;;;;;12.40;57.43;94366.91;4984900;28;20416;-72
2021/10/18 00:37:16;;;;;;;7.57;5.05;;;;;;;12.41;57.44;94376.50;4985468;28;20033;-72
2021/10/18 00:39:42;;;;;;;9.73;5.93;;;;;;;12.39;57.39;94374.13;4983967;28;20136;-72
2021/10/18 00:42:07;;;;;;;10.13;6.00;;;;;;;12.47;57.22;94383.22;4980638;28;20038;-72
2021/10/18 00:44:33;;;;;;;10.88;6.28;;;;;;;12.46;57.36;94387.00;4982770;28;20382;-72
2021/10/18 00:46:59;;;;;;;12.90;6.07;;;;;;;12.40;57.03;94374.91;4988559;28;20022;-73
2021/10/18 00:49:25;;;;;;;12.20;6.10;;;;;;;12.55;56.97;94390.47;4983854;28;20526;-72
2021/10/18 00:51:51;;;;;;;8.00;5.38;;;;;;;12.51;57.01;94386.88;4987832;28;20099;-72
2021/10/18 00:54:16;;;;;;;8.98;5.60;;;;;;;12.49;57.11;94383.72;4988662;28;20041;-73
2021/10/18 00:56:43;;;;;;;9.50;4.75;;;;;;;12.38;57.44;94377.09;4986450;28;20137;-73
2021/10/18 00:59:09;;;;;;;9.40;5.22;;;;;;;12.34;57.27;94373.47;4999256;28;20050;-72
2021/10/18 01:01:35;;;;;;;11.27;5.82;;;;;;;12.48;57.23;94384.81;4983488;28;20501;-74
2021/10/18 01:04:03;;;;;;;9.73;6.15;;;;;;;12.50;57.30;94385.28;4978537;28;20038;-72
2021/10/18 01:06:29;;;;;;;9.40;5.95;;;;;;;12.61;57.05;94383.94;4989026;28;20042;-72
2021/10/18 01:08:57;;;;;;;8.93;4.65;;;;;;;12.61;56.66;94381.28;4980127;28;20872;-72
2021/10/18 01:11:23;;;;;;;8.88;5.40;;;;;;;12.58;56.96;94376.53;4982742;28;20037;-72
2021/10/18 01:13:49;;;;;;;9.60;5.32;;;;;;;12.44;56.98;94360.63;4983209;28;20030;-72
2021/10/18 01:16:15;;;;;;;8.93;5.13;;;;;;;12.54;57.26;94375.56;4982785;28;20026;-72
2021/10/18 01:18:41;;;;;;;9.50;4.93;;;;;;;12.52;57.24;94367.06;4990148;28;20073;-72
2021/10/18 01:21:06;;;;;;;11.27;5.57;;;;;;;12.58;57.04;94365.88;4981558;28;20374;-72
2021/10/18 01:23:32;;;;;;;8.68;4.97;;;;;;;12.48;57.53;94366.13;4982712;28;20073;-72
2021/10/18 01:25:57;;;;;;;8.68;5.53;;;;;;;12.40;57.48;94359.69;4983782;28;20033;-72
2021/10/18 01:28:23;;;;;;;11.55;5.38;;;;;;;12.47;57.40;94375.22;4986061;28;20113;-72
2021/10/18 01:30:48;;;;;;;10.07;4.90;;;;;;;12.47;57.33;94368.00;5000446;28;20073;-72
2021/10/18 01:33:14;;;;;;;8.98;5.45;;;;;;;12.37;57.67;94356.88;4980213;28;20459;-74
2021/10/18 01:35:40;;;;;;;9.68;5.97;;;;;;;12.50;57.24;94369.28;4981622;28;20520;-72
2021/10/18 01:38:05;;;;;;;8.77;5.07;;;;;;;12.37;57.51;94352.28;4983585;28;20042;-73
2021/10/18 01:40:31;;;;;;;8.45;5.53;;;;;;;12.42;57.78;94364.69;4991086;28;20133;-72
2021/10/18 01:42:56;;;;;;;7.15;4.60;;;;;;;12.48;57.69;94371.47;4980648;28;20373;-72
2021/10/18 01:45:23;;;;;;;10.18;5.70;;;;;;;12.45;57.55;94362.22;4984141;28;20122;-72
2021/10/18 01:47:48;;;;;;;10.35;5.70;;;;;;;12.48;57.96;94379.47;4988402;28;20566;-72
2021/10/18 01:50:21;;;;;;;8.60;5.53;;;;;;;12.59;57.52;94372.78;4986182;28;20053;-73
2021/10/18 01:52:48;;;;;;;9.80;5.20;;;;;;;12.54;57.58;94370.22;4990204;28;20423;-73
2021/10/18 01:55:14;;;;;;;7.82;5.00;;;;;;;12.51;57.37;94373.53;4987079;28;20046;-74
2021/10/18 01:57:41;;;;;;;7.35;4.93;;;;;;;12.49;57.85;94370.38;4988414;28;20105;-72
2021/10/18 02:00:08;;;;;;;11.35;5.85;;;;;;;12.42;57.39;94344.16;4991293;28;20038;-72
2021/10/18 02:02:33;;;;;;;8.07;5.18;;;;;;;12.51;57.75;94368.19;4982087;28;20057;-72
2021/10/18 02:04:59;;;;;;;8.88;5.18;;;;;;;12.38;57.74;94355.75;4986483;28;20038;-72
2021/10/18 02:07:24;;;;;;;9.23;4.70;;;;;;;12.39;57.81;94357.31;4986972;28;20037;-72
2021/10/18 02:09:52;;;;;;;8.07;4.93;;;;;;;12.47;58.13;94364.56;4986740;28;20069;-72
2021/10/18 02:12:18;;;;;;;11.60;5.80;;;;;;;12.55;58.01;94374.47;4986638;28;20030;-73
2021/10/18 02:14:44;;;;;;;8.05;5.35;;;;;;;12.55;57.81;94365.69;4986046;28;20053;-72
2021/10/18 02:17:09;;;;;;;9.15;5.18;;;;;;;12.44;58.14;94355.31;4981395;28;20109;-72
2021/10/18 02:19:35;;;;;;;7.88;5.18;;;;;;;12.61;58.00;94380.47;4987635;28;20037;-74
2021/10/18 02:22:05;;;;;;;8.98;4.75;;;;;;;12.56;58.00;94373.38;5003006;28;20038;-72
2021/10/18 02:24:31;;;;;;;9.95;5.28;;;;;;;12.54;57.95;94367.56;4988471;28;20044;-72
2021/10/18 02:26:56;;;;;;;6.88;4.60;;;;;;;12.55;57.90;94371.03;4993522;28;20109;-71
2021/10/18 02:29:22;;;;;;;8.55;4.65;;;;;;;12.54;58.06;94372.91;4992948;28;20049;-72
2021/10/18 02:31:47;;;;;;;9.65;5.38;;;;;;;12.62;58.07;94372.16;4985061;28;20034;-72
2021/10/18 02:34:13;;;;;;;7.72;4.47;;;;;;;12.66;58.15;94373.13;4984029;28;20026;-72
2021/10/18 02:36:38;;;;;;;8.25;5.13;;;;;;;12.66;57.94;94380.34;4985673;28;20124;-72
2021/10/18 02:39:06;;;;;;;8.60;4.90;;;;;;;12.67;58.07;94379.22;4987088;28;20128;-72
2021/10/18 02:41:31;;;;;;;10.18;5.25;;;;;;;12.59;57.75;94366.66;4985117;28;20052;-72
2021/10/18 02:43:56;;;;;;;9.10;5.93;;;;;;;12.59;58.03;94366.66;5001035;28;20441;-72
2021/10/18 02:46:22;;;;;;;9.05;5.20;;;;;;;12.56;57.95;94357.38;4990469;28;20036;-72
2021/10/18 02:48:47;;;;;;;8.63;5.47;;;;;;;12.70;58.09;94374.06;4984838;28;20412;-72
2021/10/18 02:51:13;;;;;;;8.88;4.57;;;;;;;12.72;58.00;94376.41;4988685;28;20409;-72
2021/10/18 02:53:38;;;;;;;10.00;4.45;;;;;;;12.66;58.26;94369.66;4989569;28;20044;-71
2021/10/18 02:56:04;;;;;;;7.30;4.75;;;;;;;12.72;58.03;94379.84;4984519;28;20492;-72
2021/10/18 02:58:29;;;;;;;8.15;4.88;;;;;;;12.75;57.75;94373.91;4990144;28;20050;-72
2021/10/18 03:00:54;;;;;;;8.63;5.45;;;;;;;12.66;58.18;94365.13;4985623;28;20751;-71
2021/10/18 03:03:20;;;;;;;9.00;5.45;;;;;;;12.66;58.34;94361.66;4991361;28;20418;-72
2021/10/18 03:05:45;;;;;;;8.50;5.20;;;;;;;12.79;58.23;94382.06;4983212;28;20100;-72
2021/10/18 03:08:10;;;;;;;6.53;5.25;;;;;;;12.79;58.01;94382.06;4980655;28;20515;-71
2021/10/18 03:10:40;;;;;;;9.07;5.40;;;;;;;12.76;58.10;94382.72;4988464;28;20061;-74
2021/10/18 03:13:09;;;;;;;7.20;4.22;;;;;;;12.68;58.25;94362.09;4985714;28;20119;-72
2021/10/18 03:15:35;;;;;;;10.30;5.00;;;;;;;12.79;58.16;94380.19;4981681;28;20555;-73
2021/10/18 03:18:01;;;;;;;7.40;4.57;;;;;;;12.67;58.45;94361.31;4985327;28;20473;-72
2021/10/18 03:20:26;;;;;;;7.90;4.93;;;;;;;12.78;58.26;94377.81;4988427;28;20495;-72
2021/10/18 03:22:53;;;;;;;8.65;5.13;;;;;;;12.72;58.43;94371.84;4983815;28;20018;-72
2021/10/18 03:25:19;;;;;;;9.80;4.75;;;;;;;12.77;58.60;94378.91;4989539;28;20436;-71
2021/10/18 03:27:45;;;;;;;7.50;4.53;;;;;;;12.50;58.50;94337.28;4983022;28;20041;-72
2021/10/18 03:30:10;;;;;;;9.52;5.55;;;;;;;12.68;58.65;94370.91;4985712;28;20037;-71
2021/10/18 03:32:36;;;;;;;8.52;5.38;;;;;;;12.82;58.32;94398.25;4984396;28;20560;-73
2021/10/18 03:35:02;;;;;;;8.88;5.28;;;;;;;12.62;58.31;94361.47;4992268;28;20467;-72
2021/10/18 03:37:28;;;;;;;8.27;4.78;;;;;;;12.82;58.22;94386.78;4980226;28;20575;-73
2021/10/18 03:39:54;;;;;;;8.68;5.28;;;;;;;12.79;58.31;94388.19;4985525;28;20341;-73
2021/10/18 03:42:19;;;;;;;8.05;4.60;;;;;;;12.76;58.26;94377.38;4982561;28;20574;-72
2021/10/18 03:44:44;;;;;;;10.63;5.15;;;;;;;12.86;58.15;94393.84;4984504;28;20091;-72
2021/10/18 03:47:10;;;;;;;10.68;6.40;;;;;;;12.95;57.93;94396.53;4984808;28;20209;-71
2021/10/18 03:49:35;;;;;;;10.73;5.70;;;;;;;12.98;58.10;94392.44;4981732;28;20084;-73
2021/10/18 03:52:01;;;;;;;6.95;4.57;;;;;;;13.00;57.73;94377.69;4986544;28;20045;-72
2021/10/18 03:54:26;;;;;;;16.48;7.55;;;;;;;12.95;57.91;94372.50;4995799;28;20259;-72
2021/10/18 03:56:52;;;;;;;21.45;9.45;;;;;;;12.81;57.85;94369.97;4983693;28;20054;-71
2021/10/18 03:59:17;;;;;;;22.38;8.75;;;;;;;12.80;58.71;94392.44;4985844;28;20046;-72
2021/10/18 04:01:42;;;;;;;14.00;6.70;;;;;;;12.88;58.33;94397.00;4983009;28;20388;-72
2021/10/18 04:04:08;;;;;;;12.45;5.97;;;;;;;12.93;57.87;94393.38;4988278;28;20550;-72
2021/10/18 04:06:34;;;;;;;15.93;8.80;;;;;;;12.87;57.44;94390.06;4985296;28;20129;-73
2021/10/18 04:08:59;;;;;;;15.00;8.88;;;;;;;12.72;57.59;94371.84;4982485;28;20523;-72
2021/10/18 04:11:25;;;;;;;21.23;9.93;;;;;;;12.84;57.56;94398.72;4988149;28;20065;-72
2021/10/18 04:13:50;;;;;;;17.73;11.55;;;;;;;12.78;57.66;94399.97;4988128;28;20471;-72
2021/10/18 04:16:16;;;;;;;17.67;9.60;;;;;;;12.72;57.79;94401.22;4984682;28;20547;-72
2021/10/18 04:18:41;;;;;;;14.50;9.68;;;;;;;12.70;57.86;94399.97;4983609;28;20125;-71
2021/10/18 04:21:06;;;;;;;19.65;10.10;;;;;;;12.75;57.71;94400.59;4982143;28;20034;-73
2021/10/18 04:23:33;;;;;;;16.70;10.07;;;;;;;12.55;57.80;94381.69;4982052;28;20157;-72
2021/10/18 04:25:58;;;;;;;16.08;8.85;;;;;;;12.63;58.27;94403.06;4979874;28;20066;-72
2021/10/18 04:28:24;;;;;;;17.23;9.77;;;;;;;12.65;57.86;94403.56;4984548;28;20109;-73
2021/10/18 04:30:49;;;;;;;18.20;9.73;;;;;;;12.65;58.18;94403.56;4980804;28;20088;-74
2021/10/18 04:33:15;;;;;;;20.10;11.63;;;;;;;12.29;58.58;94358.41;4982961;28;20073;-74
2021/10/18 04:35:40;;;;;;;26.20;13.75;;;;;;;12.48;57.98;94382.13;4977791;28;20629;-73
2021/10/18 04:38:06;;;;;;;23.90;13.68;;;;;;;12.59;58.19;94402.13;4979180;28;20050;-73
2021/10/18 04:40:32;;;;;;;26.38;14.02;;;;;;;12.63;58.36;94405.75;4985459;28;20172;-71
2021/10/18 04:42:57;;;;;;;18.23;10.25;;;;;;;12.72;58.15;94405.75;4976022;28;20068;-71
2021/10/18 04:45:23;;;;;;;17.95;8.77;;;;;;;12.65;57.98;94398.22;4981056;28;20033;-71
2021/10/18 04:47:50;;;;;;;12.95;7.35;;;;;;;12.67;57.92;94406.69;4981002;28;20096;-72
2021/10/18 04:50:17;;;;;;;13.35;8.35;;;;;;;12.68;58.14;94405.59;4981467;28;20054;-71
2021/10/18 04:52:42;;;;;;;13.55;8.38;;;;;;;12.67;57.98;94406.69;4981990;28;20341;-72
2021/10/18 04:55:08;;;;;;;13.35;7.75;;;;;;;12.69;58.03;94409.84;4985347;28;20497;-72
2021/10/18 04:57:34;;;;;;;14.73;7.55;;;;;;;12.67;57.73;94412.03;4982968;28;20275;-72
2021/10/18 04:59:59;;;;;;;13.70;8.07;;;;;;;12.58;57.75;94386.41;4984502;28;20505;-71
2021/10/18 05:02:24;;;;;;;12.70;8.05;;;;;;;12.71;57.52;94412.97;4980483;28;20124;-72
2021/10/18 05:04:50;;;;;;;14.30;8.10;;;;;;;12.67;57.52;94408.56;4986794;28;20086;-72
2021/10/18 05:07:15;;;;;;;13.68;8.38;;;;;;;12.63;57.50;94411.09;4983620;28;20026;-72
2021/10/18 05:09:41;;;;;;;16.23;8.13;;;;;;;12.70;57.79;94422.09;4981295;28;20046;-71
2021/10/18 05:12:06;;;;;;;19.35;9.48;;;;;;;12.74;57.27;94423.03;4977227;28;20039;-73
2021/10/18 05:14:32;;;;;;;16.00;9.48;;;;;;;12.69;57.43;94415.19;4985689;28;20048;-72
2021/10/18 05:16:57;;;;;;;15.55;8.65;;;;;;;12.75;57.41;94421.94;4979601;28;20068;-72
2021/10/18 05:19:23;;;;;;;15.15;8.95;;;;;;;12.68;57.46;94424.28;4984078;28;20032;-72
2021/10/18 05:21:48;;;;;;;17.33;9.45;;;;;;;12.58;57.43;94408.56;4987540;28;20034;-71
2021/10/18 05:24:15;;;;;;;17.42;8.98;;;;;;;12.68;57.31;94429.63;4981827;28;20497;-72
2021/10/18 05:26:41;;;;;;;19.95;8.90;;;;;;;12.78;56.87;94429.31;4993170;28;20192;-72
2021/10/18 05:29:07;;;;;;;16.20;8.95;;;;;;;12.84;56.84;94437.97;4986893;28;20545;-72
2021/10/18 05:31:32;;;;;;;17.65;9.60;;;;;;;12.78;57.28;94432.00;4989265;28;20014;-72
2021/10/18 05:33:58;;;;;;;14.93;8.95;;;;;;;12.79;57.20;94441.59;4984053;28;20042;-72
2021/10/18 05:36:23;;;;;;;15.75;8.38;;;;;;;12.74;56.92;94433.72;4986149;28;20034;-71
2021/10/18 05:38:49;;;;;;;15.40;8.63;;;;;;;12.88;57.20;94445.06;4986278;28;20814;-72
2021/10/18 05:41:14;;;;;;;17.92;9.98;;;;;;;12.82;57.40;94446.28;4987788;28;20531;-71
2021/10/18 05:43:40;;;;;;;15.55;8.70;;;;;;;12.83;57.56;94442.53;4983534;28;20037;-72
2021/10/18 05:46:05;;;;;;;13.60;8.70;;;;;;;12.86;57.55;94451.78;4990901;28;20042;-71
2021/10/18 05:48:32;;;;;;;15.88;8.93;;;;;;;12.83;57.46;94447.88;4983606;28;20045;-72
2021/10/18 05:50:58;;;;;;;14.27;8.90;;;;;;;12.88;57.42;94449.59;4989693;28;20049;-72
2021/10/18 05:53:24;;;;;;;20.65;11.13;;;;;;;12.92;57.15;94444.41;4980979;28;20501;-72
2021/10/18 05:55:49;;;;;;;22.55;11.70;;;;;;;13.07;56.92;94446.63;4985862;28;20305;-74
2021/10/18 05:58:15;;;;;;;19.73;10.90;;;;;;;13.07;56.77;94458.09;4986484;28;20048;-72
2021/10/18 06:00:43;;;;;;;16.23;9.55;;;;;;;13.04;56.59;94466.75;4984215;28;20467;-73
2021/10/18 06:03:09;;;;;;;19.40;9.38;;;;;;;13.00;57.06;94465.03;4987801;28;20046;-73
2021/10/18 06:05:46;;;;;;;15.30;8.75;;;;;;;12.94;57.03;94474.28;4986748;28;20034;-73
2021/10/18 06:08:14;;;;;;;16.45;9.50;;;;;;;12.88;57.62;94469.06;4984053;28;20579;-72
2021/10/18 06:10:40;;;;;;;13.55;8.60;;;;;;;12.89;57.86;94473.31;4984889;28;20275;-73
2021/10/18 06:13:06;;;;;;;24.73;11.68;;;;;;;12.82;57.28;94466.84;4987927;28;20502;-72
2021/10/18 06:15:31;;;;;;;19.33;9.95;;;;;;;12.96;57.25;94485.44;4984610;28;20477;-73
2021/10/18 06:18:07;;;;;;;19.08;10.63;;;;;;;12.91;57.22;94461.56;4979744;28;20038;-73
2021/10/18 06:20:32;;;;;;;;;;;;;;;12.99;57.08;94482.13;4985104;28;20759;-71
2021/10/18 06:22:57;;;;;;;21.35;10.40;;;;;;;12.84;57.47;94470.81;4986879;28;20032;-72
2021/10/18 06:25:24;;;;;;;16.98;9.65;;;;;;;12.93;57.94;94494.06;4984587;28;20453;-71
2021/10/18 06:27:50;;;;;;;19.70;10.77;;;;;;;12.95;57.86;94492.66;4987510;28;20051;-71
2021/10/18 06:30:15;;;;;;;21.98;10.57;;;;;;;12.98;57.47;94491.25;4985367;28;20044;-71
2021/10/18 06:32:41;;;;;;;18.65;10.63;;;;;;;12.99;57.52;94492.81;4985958;28;20042;-71
2021/10/18 06:35:07;;;;;;;18.60;10.88;;;;;;;13.01;57.31;94495.94;4981680;28;20131;-70
2021/10/18 06:37:33;;;;;;;30.40;13.73;;;;;;;12.94;57.31;94490.28;4983489;28;20165;-73
2021/10/18 06:39:58;;;;;;;24.27;13.25;;;;;;;12.96;57.40;94496.13;4984450;28;20215;-72
2021/10/18 06:42:26;;;;;;;20.08;12.27;;;;;;;12.98;57.79;94509.94;4977768;28;20034;-73
2021/10/18 06:44:51;;;;;;;22.75;12.77;;;;;;;12.89;57.57;94492.00;4976241;28;20041;-73
2021/10/18 06:47:18;;;;;;;18.05;10.02;;;;;;;13.03;57.26;94510.56;4980466;28;20508;-71
2021/10/18 06:49:43;;;;;;;17.27;10.32;;;;;;;12.92;57.12;94498.59;4984114;28;20092;-72
2021/10/18 06:52:09;;;;;;;18.92;11.15;;;;;;;13.02;57.14;94521.56;4982704;28;20529;-71
2021/10/18 06:54:37;;;;;;;17.08;10.05;;;;;;;13.00;56.60;94502.41;4978631;28;20038;-71
2021/10/18 06:57:03;;;;;;;20.15;11.43;;;;;;;12.94;57.14;94514.31;4980032;28;20631;-72
2021/10/18 06:59:28;;;;;;;20.60;10.63;;;;;;;12.91;57.01;94514.94;4977872;28;20649;-72
2021/10/18 07:01:54;;;;;;;17.95;9.85;;;;;;;13.03;56.92;94525.81;4980336;28;20046;-71
2021/10/18 07:04:22;;;;;;;20.00;10.57;;;;;;;13.01;57.25;94536.78;4983145;28;20764;-71
2021/10/18 07:06:48;;;;;;;18.40;10.52;;;;;;;13.11;57.16;94533.03;4980322;28;20034;-74
2021/10/18 07:09:14;;;;;;;19.70;9.93;;;;;;;13.18;55.85;94528.03;4983051;28;20310;-72
2021/10/18 07:11:39;;;;;;;19.08;9.80;;;;;;;12.99;56.41;94522.19;4979856;28;20125;-71
2021/10/18 07:14:05;;;;;;;22.20;11.60;;;;;;;12.93;56.93;94539.44;4986745;28;20045;-71
2021/10/18 07:16:30;;;;;;;20.23;10.20;;;;;;;12.79;57.24;94531.56;4980957;28;20030;-72
2021/10/18 07:18:56;;;;;;;17.15;9.35;;;;;;;13.05;56.49;94535.09;4986404;28;20030;-71
2021/10/18 07:21:22;;;;;;;14.52;8.27;;;;;;;13.12;56.23;94540.75;4981680;28;20049;-71
2021/10/18 07:23:51;;;;;;;18.20;9.07;;;;;;;12.95;56.56;94543.38;4975946;28;20439;-71
2021/10/18 07:26:21;;;;;;;19.17;9.60;;;;;;;12.82;56.71;94525.56;4975384;28;20133;-71
2021/10/18 07:28:47;;;;;;;14.38;9.57;;;;;;;12.97;56.46;94543.06;4985078;28;20496;-71
2021/10/18 07:31:12;;;;;;;15.27;9.35;;;;;;;12.87;56.32;94528.09;4984917;28;20038;-72
2021/10/18 07:33:38;;;;;;;17.08;9.77;;;;;;;12.83;56.51;94522.59;4984260;28;20592;-73
2021/10/18 07:36:12;;;;;;;17.83;10.27;;;;;;;13.01;56.48;94539.47;4991514;28;20037;-73
2021/10/18 07:38:38;;;;;;;17.52;8.73;;;;;;;12.96;57.04;94547.59;4991910;28;20387;-72
2021/10/18 07:41:06;;;;;;;21.33;11.20;;;;;;;12.93;57.30;94542.09;4984975;28;20043;-73
2021/10/18 07:43:32;;;;;;;49.20;20.67;;;;;;;13.02;56.79;94550.94;4984624;28;20026;-71
2021/10/18 07:45:57;;;;;;;24.30;12.20;;;;;;;13.07;56.68;94548.13;4986773;28;20038;-72
2021/10/18 07:48:23;;;;;;;16.50;9.23;;;;;;;12.73;56.70;94538.91;4985214;28;20472;-72
2021/10/18 07:50:48;;;;;;;13.23;8.32;;;;;;;12.82;56.52;94538.94;4986737;28;20061;-72
2021/10/18 07:53:13;;;;;;;12.80;7.90;;;;;;;12.98;56.69;94553.44;4983625;28;20451;-73
2021/10/18 07:55:39;;;;;;;16.10;9.15;;;;;;;13.10;56.36;94550.19;4986983;28;20492;-72
2021/10/18 07:58:04;;;;;;;16.58;9.93;;;;;;;13.14;56.25;94553.81;4983290;28;20076;-72
2021/10/18 08:00:30;;;;;;;14.88;9.30;;;;;;;13.04;56.01;94538.84;4986365;28;20120;-72
2021/10/18 08:02:56;;;;;;;16.60;8.55;;;;;;;13.05;55.90;94534.31;4984837;28;20189;-72
2021/10/18 08:05:23;;;;;;;22.67;12.32;;;;;;;13.13;55.51;94525.50;4986085;28;20150;-72
2021/10/18 08:07:50;;;;;;;21.77;10.82;;;;;;;13.28;55.65;94557.13;4979066;28;20026;-72
2021/10/18 08:10:23;;;;;;;18.27;8.25;;;;;;;13.26;55.08;94527.25;4985403;28;20080;-74
2021/10/18 08:12:57;;;;;;;79.13;30.38;;;;;;;13.18;55.58;94549.41;4992680;28;20125;-72
2021/10/18 08:15:24;;;;;;;26.58;10.32;;;;;;;13.16;55.52;94547.03;4982528;28;20030;-73
2021/10/18 08:17:50;;;;;;;16.75;10.02;;;;;;;13.25;55.61;94531.81;4979044;28;20333;-72
2021/10/18 08:20:16;;;;;;;13.18;7.13;;;;;;;13.25;55.96;94541.72;4979260;28;20069;-72
2021/10/18 08:22:42;;;;;;;13.57;7.38;;;;;;;13.08;55.62;94517.66;4982974;28;20144;-72
2021/10/18 08:25:08;;;;;;;13.30;8.23;;;;;;;12.81;55.27;94505.34;4983943;28;20484;-72
2021/10/18 08:27:34;;;;;;;11.85;6.22;;;;;;;13.06;55.58;94533.19;4986752;28;20753;-71
2021/10/18 08:29:59;;;;;;;10.40;6.60;;;;;;;13.21;55.12;94532.75;4985254;28;20480;-73
2021/10/18 08:32:25;;;;;;;11.02;6.95;;;;;;;13.30;54.88;94523.66;4987167;28;20145;-72
2021/10/18 08:34:50;;;;;;;9.27;5.18;;;;;;;13.27;53.77;94526.94;4978461;28;20034;-72
2021/10/18 08:37:16;;;;;;;12.98;6.70;;;;;;;13.25;54.12;94523.78;4980255;28;20445;-72
2021/10/18 08:42:27;;;;;;;11.93;6.43;;;;;;;13.26;54.09;94524.59;4984274;28;21097;-72
2021/10/18 08:44:52;;;;;;;28.50;12.18;;;;;;;13.22;54.48;94513.75;4986788;28;20133;-74
2021/10/18 08:47:18;;;;;;;8.60;6.78;;;;;;;13.31;54.24;94527.09;4980525;28;20052;-74
2021/10/18 08:49:43;;;;;;;9.88;6.05;;;;;;;12.95;54.85;94515.91;4981798;28;20026;-71
2021/10/18 08:52:11;;;;;;;7.97;4.70;;;;;;;13.10;54.82;94531.50;4980614;28;20513;-72
2021/10/18 08:54:36;;;;;;;8.80;6.30;;;;;;;13.02;54.81;94526.91;4983100;28;20053;-74
2021/10/18 08:57:02;;;;;;;11.18;6.63;;;;;;;13.15;54.68;94526.00;4984168;28;20053;-72
2021/10/18 08:59:27;;;;;;;12.80;7.15;;;;;;;13.22;54.68;94518.28;4986015;28;20193;-72
2021/10/18 09:01:55;;;;;;;11.40;7.25;;;;;;;13.46;54.58;94532.00;4979083;28;20030;-71
2021/10/18 09:04:27;;;;;;;10.73;7.03;;;;;;;13.61;54.50;94528.91;4984066;28;20041;-72
2021/10/18 09:07:01;;;;;;;12.85;7.40;;;;;;;13.65;54.66;94516.47;4983159;28;20038;-71
2021/10/18 09:09:29;;;;;;;10.27;7.17;;;;;;;13.53;54.71;94518.19;4982236;28;20041;-72
2021/10/18 09:11:59;;;;;;;12.38;6.43;;;;;;;13.74;54.26;94535.97;4985668;28;20042;-71
2021/10/18 09:14:25;;;;;;;11.35;6.13;;;;;;;13.70;53.81;94535.03;4980866;28;20038;-71
2021/10/18 09:16:51;;;;;;;16.25;6.72;;;;;;;13.84;53.54;94534.09;4983376;28;20465;-71
2021/10/18 09:19:25;;;;;;;12.52;7.78;;;;;;;13.83;53.26;94540.53;4979869;28;20503;-71
2021/10/18 09:21:57;;;;;;;13.30;6.57;;;;;;;13.84;53.25;94531.44;4981773;28;20046;-71
2021/10/18 09:24:28;;;;;;;12.65;7.30;;;;;;;14.00;53.39;94527.94;4982390;28;20069;-73
2021/10/18 09:26:55;;;;;;;10.38;6.95;;;;;;;13.97;53.39;94533.13;4983250;28;20053;-71
2021/10/18 09:29:22;;;;;;;11.98;6.97;;;;;;;14.01;53.61;94532.19;4983290;28;20035;-73
2021/10/18 09:32:04;;;;;;;12.88;6.88;;;;;;;14.07;53.13;94527.47;4980344;28;20606;-72
2021/10/18 09:34:35;;;;;;;10.98;6.85;;;;;;;14.11;53.20;94517.69;4982522;28;20024;-73
2021/10/18 09:37:12;;;;;;;21.88;10.73;;;;;;;14.17;53.05;94535.16;4983269;28;20049;-72
2021/10/18 09:39:48;;;;;;;12.30;7.47;;;;;;;14.04;53.30;94526.19;4977011;28;20053;-72
2021/10/18 09:42:16;;;;;;;15.68;8.80;;;;;;;14.01;52.71;94524.16;4984065;28;20567;-72
2021/10/18 09:44:52;;;;;;;15.32;8.80;;;;;;;13.87;53.71;94533.47;4980251;28;20092;-71
2021/10/18 10:53:05;;;;;;;16.15;8.88;;;;;;;14.10;53.99;94513.44;4931308;28;20077;-71
2021/10/18 10:55:34;;;;;;;14.00;8.32;;;;;;;13.92;53.47;94518.03;4961969;28;20079;-71
2021/10/18 10:58:02;;;;;;;15.32;9.18;;;;;;;13.93;53.78;94518.81;4981983;28;20060;-71
2021/10/18 11:00:35;;;;;;;14.00;8.10;;;;;;;13.92;53.83;94511.91;4972837;28;20739;-71
2021/10/18 11:03:41;;;;;;;12.25;8.57;;;;;;;13.88;54.01;94516.31;4982712;28;20106;-72
2021/10/18 11:06:14;;;;;;;12.77;7.68;;;;;;;13.70;54.17;94508.28;4986125;28;20560;-72
2021/10/18 11:08:46;;;;;;;14.68;8.00;;;;;;;13.80;54.45;94517.09;4984306;28;20054;-71
2021/10/18 11:11:20;;;;;;;13.63;7.88;;;;;;;13.83;54.55;94505.78;4979463;28;20042;-73
2021/10/18 11:13:54;;;;;;;10.00;6.95;;;;;;;13.67;54.60;94482.19;4987922;28;20380;-74
2021/10/18 11:16:25;;;;;;;14.02;7.55;;;;;;;13.71;54.45;94493.84;4983094;28;20041;-71
2021/10/18 11:18:56;;;;;;;12.68;7.20;;;;;;;13.85;54.03;94504.34;4984089;28;20507;-71
2021/10/18 11:21:28;;;;;;;11.77;7.70;;;;;;;13.61;54.40;94498.72;4976908;28;20400;-73
2021/10/18 11:24:09;;;;;;;16.15;9.45;;;;;;;13.58;54.90;94502.78;4976002;28;20038;-71
2021/10/18 11:26:39;;;;;;;13.35;7.75;;;;;;;13.56;55.24;94496.16;4984388;28;20482;-73
2021/10/18 11:29:07;;;;;;;15.75;8.73;;;;;;;13.59;56.37;94495.56;4976689;28;20067;-72
2021/10/18 11:31:39;;;;;;;16.08;9.05;;;;;;;13.53;55.81;94494.13;4990879;28;20030;-74
2021/10/18 11:34:18;;;;;;;13.55;7.78;;;;;;;13.58;55.29;94483.28;4984210;28;20049;-73
2021/10/18 11:36:47;;;;;;;14.57;7.20;;;;;;;13.65;55.57;94489.75;4983637;28;20409;-73
2021/10/18 11:39:12;;;;;;;16.35;7.68;;;;;;;13.67;56.12;94492.09;4984464;28;20099;-73
2021/10/18 11:41:56;;;;;;;14.55;8.18;;;;;;;13.72;55.04;94489.28;4982707;28;20053;-72
2021/10/18 11:44:57;;;;;;;17.20;9.60;;;;;;;13.60;55.49;94492.56;4984580;28;20042;-73
2021/10/18 11:47:27;;;;;;;12.50;7.60;;;;;;;13.52;55.52;94490.66;4952264;28;20732;-74
2021/10/18 11:50:11;;;;;;;13.65;7.07;;;;;;;13.67;55.32;94484.09;4961250;28;20042;-74
2021/10/18 11:52:49;;;;;;;10.30;6.57;;;;;;;13.75;54.91;94473.38;4991900;28;20044;-72
2021/10/18 11:55:19;;;;;;;10.52;6.78;;;;;;;13.79;54.63;94472.75;4983729;28;20088;-73
2021/10/18 11:57:47;;;;;;;12.52;6.88;;;;;;;13.90;54.31;94476.66;4991336;28;20133;-73
2021/10/18 12:00:24;;;;;;;16.83;9.18;;;;;;;13.87;54.62;94485.31;4983012;28;20033;-72
2021/10/18 12:02:50;;;;;;;13.15;7.55;;;;;;;13.90;54.93;94457.94;4983437;28;20622;-73
2021/10/18 12:05:16;;;;;;;11.15;7.28;;;;;;;13.99;54.41;94485.44;4979905;28;20568;-74
2021/10/18 12:07:42;;;;;;;8.50;5.47;;;;;;;14.01;54.17;94476.00;4986349;28;20065;-72
2021/10/18 12:10:28;;;;;;;11.05;5.80;;;;;;;14.07;53.59;94484.66;4982899;28;20134;-73
2021/10/18 12:13:04;;;;;;;14.50;7.45;;;;;;;14.07;54.12;94473.97;4985299;28;20042;-73
2021/10/18 12:15:35;;;;;;;10.85;6.75;;;;;;;14.11;53.41;94469.53;4977933;28;20042;-73
2021/10/18 12:18:01;;;;;;;13.35;6.57;;;;;;;14.12;53.43;94471.13;4977876;28;20072;-72
2021/10/18 12:20:27;;;;;;;10.32;6.45;;;;;;;13.95;53.33;94452.44;4980367;28;20554;-74
2021/10/18 12:23:08;;;;;;;11.23;6.10;;;;;;;13.90;53.70;94465.97;4981334;28;20481;-73
2021/10/18 12:25:36;;;;;;;11.25;5.50;;;;;;;13.94;54.23;94470.34;4983871;28;20049;-72
2021/10/18 12:28:27;;;;;;;9.80;4.95;;;;;;;14.00;53.33;94474.44;4981651;28;20045;-73
2021/10/18 12:30:53;;;;;;;6.95;4.72;;;;;;;13.95;52.74;94468.47;4978231;28;20050;-72
2021/10/18 12:33:19;;;;;;;7.85;5.32;;;;;;;13.68;53.11;94464.28;4979427;28;20038;-73
2021/10/18 12:35:56;;;;;;;12.35;6.65;;;;;;;13.80;53.52;94468.97;4982077;28;20096;-72